sensor_id;sensor_type;location;lat;lon;timestamp;P1;durP1;ratioP1;P2;durP2;ratioP2
20906;SDS011;10613;50.966;5.814;2022-12-07T00:00:13;5.50;;;5.50;;
20906;SDS011;10613;50.966;5.814;2022-12-07T00:04:27;2.00;;;2.00;;
20906;SDS011;10613;50.966;5.814;2022-12-07T00:08:34;5.00;;;5.00;;
20906;SDS011;10613;50.966;5.814;2022-12-07T00:12:41;4.00;;;4.00;;
20906;SDS011;10613;50.966;5.814;2022-12-07T00:16:48;4.00;;;4.00;;
20906;SDS011;10613;50.966;5.814;2022-12-07T00:25:35;2.00;;;2.00;;
20906;SDS011;10613;50.966;5.814;2022-12-07T00:29:42;4.00;;;4.00;;
20906;SDS011;10613;50.966;5.814;2022-12-07T00:33:49;5.00;;;5.00;;
20906;SDS011;10613;50.966;5.814;2022-12-07T00:37:56;3.50;;;3.50;;
20906;SDS011;10613;50.966;5.814;2022-12-07T00:42:03;3.00;;;3.00;;
20906;SDS011;10613;50.966;5.814;2022-12-07T00:46:10;6.25;;;6.25;;
20906;SDS011;10613;50.966;5.814;2022-12-07T00:50:17;2.00;;;2.00;;
20906;SDS011;10613;50.966;5.814;2022-12-07T00:54:24;5.00;;;5.00;;
20906;SDS011;10613;50.966;5.814;2022-12-07T00:58:31;3.00;;;3.00;;
20906;SDS011;10613;50.966;5.814;2022-12-07T01:02:38;3.50;;;3.50;;
20906;SDS011;10613;50.966;5.814;2022-12-07T01:06:45;3.00;;;3.00;;
20906;SDS011;10613;50.966;5.814;2022-12-07T01:11:03;6.25;;;5.00;;
20906;SDS011;10613;50.966;5.814;2022-12-07T01:15:11;3.50;;;3.50;;
20906;SDS011;10613;50.966;5.814;2022-12-07T01:19:18;6.75;;;5.50;;
20906;SDS011;10613;50.966;5.814;2022-12-07T01:23:25;3.00;;;3.00;;
20906;SDS011;10613;50.966;5.814;2022-12-07T01:27:32;5.00;;;5.00;;
20906;SDS011;10613;50.966;5.814;2022-12-07T01:31:39;4.00;;;4.00;;
20906;SDS011;10613;50.966;5.814;2022-12-07T01:35:46;3.00;;;3.00;;
20906;SDS011;10613;50.966;5.814;2022-12-07T01:39:53;3.75;;;3.75;;
20906;SDS011;10613;50.966;5.814;2022-12-07T01:48:32;3.75;;;3.00;;
20906;SDS011;10613;50.966;5.814;2022-12-07T01:52:41;3.25;;;3.25;;
20906;SDS011;10613;50.966;5.814;2022-12-07T01:56:50;4.00;;;4.00;;
20906;SDS011;10613;50.966;5.814;2022-12-07T02:00:58;3.00;;;3.00;;
20906;SDS011;10613;50.966;5.814;2022-12-07T02:05:12;4.00;;;4.00;;
20906;SDS011;10613;50.966;5.814;2022-12-07T02:09:19;3.25;;;3.25;;
20906;SDS011;10613;50.966;5.814;2022-12-07T02:13:26;3.00;;;3.00;;
20906;SDS011;10613;50.966;5.814;2022-12-07T02:26:23;4.00;;;4.00;;
20906;SDS011;10613;50.966;5.814;2022-12-07T02:30:34;3.00;;;3.00;;
20906;SDS011;10613;50.966;5.814;2022-12-07T02:38:59;3.25;;;3.25;;
20906;SDS011;10613;50.966;5.814;2022-12-07T02:43:08;4.00;;;4.00;;
20906;SDS011;10613;50.966;5.814;2022-12-07T02:47:18;1.50;;;1.50;;
20906;SDS011;10613;50.966;5.814;2022-12-07T02:51:29;5.50;;;5.50;;
20906;SDS011;10613;50.966;5.814;2022-12-07T02:55:37;3.75;;;3.75;;
20906;SDS011;10613;50.966;5.814;2022-12-07T02:59:49;6.00;;;6.00;;
20906;SDS011;10613;50.966;5.814;2022-12-07T03:16:59;3.00;;;3.00;;
20906;SDS011;10613;50.966;5.814;2022-12-07T03:21:11;8.00;;;6.50;;
20906;SDS011;10613;50.966;5.814;2022-12-07T03:25:20;6.00;;;6.00;;
20906;SDS011;10613;50.966;5.814;2022-12-07T03:29:28;5.00;;;5.00;;
20906;SDS011;10613;50.966;5.814;2022-12-07T03:33:58;3.00;;;3.00;;
20906;SDS011;10613;50.966;5.814;2022-12-07T03:42:09;5.50;;;4.50;;
20906;SDS011;10613;50.966;5.814;2022-12-07T03:50:48;6.00;;;3.50;;
20906;SDS011;10613;50.966;5.814;2022-12-07T03:54:57;4.00;;;4.00;;
20906;SDS011;10613;50.966;5.814;2022-12-07T03:59:06;5.50;;;5.50;;
20906;SDS011;10613;50.966;5.814;2022-12-07T04:03:13;5.50;;;5.50;;
20906;SDS011;10613;50.966;5.814;2022-12-07T04:07:20;3.00;;;3.00;;
20906;SDS011;10613;50.966;5.814;2022-12-07T04:11:34;2.00;;;2.00;;
20906;SDS011;10613;50.966;5.814;2022-12-07T04:15:41;4.00;;;4.00;;
20906;SDS011;10613;50.966;5.814;2022-12-07T04:19:48;5.50;;;5.50;;
20906;SDS011;10613;50.966;5.814;2022-12-07T04:23:55;1.00;;;1.00;;
20906;SDS011;10613;50.966;5.814;2022-12-07T04:28:02;7.00;;;7.00;;
20906;SDS011;10613;50.966;5.814;2022-12-07T04:32:09;3.25;;;3.25;;
20906;SDS011;10613;50.966;5.814;2022-12-07T04:36:16;4.00;;;4.00;;
20906;SDS011;10613;50.966;5.814;2022-12-07T04:40:23;3.00;;;3.00;;
20906;SDS011;10613;50.966;5.814;2022-12-07T04:44:30;3.75;;;3.75;;
20906;SDS011;10613;50.966;5.814;2022-12-07T04:48:37;4.00;;;4.00;;
20906;SDS011;10613;50.966;5.814;2022-12-07T04:52:44;2.00;;;2.00;;
20906;SDS011;10613;50.966;5.814;2022-12-07T04:56:51;5.00;;;4.25;;
20906;SDS011;10613;50.966;5.814;2022-12-07T05:00:58;3.75;;;3.75;;
20906;SDS011;10613;50.966;5.814;2022-12-07T05:05:12;6.00;;;6.00;;
20906;SDS011;10613;50.966;5.814;2022-12-07T05:09:19;3.00;;;3.00;;
20906;SDS011;10613;50.966;5.814;2022-12-07T05:13:26;3.00;;;3.00;;
20906;SDS011;10613;50.966;5.814;2022-12-07T05:17:33;4.00;;;4.00;;
20906;SDS011;10613;50.966;5.814;2022-12-07T05:21:40;6.00;;;6.00;;
20906;SDS011;10613;50.966;5.814;2022-12-07T05:25:47;5.50;;;3.50;;
20906;SDS011;10613;50.966;5.814;2022-12-07T05:29:54;3.00;;;3.00;;
20906;SDS011;10613;50.966;5.814;2022-12-07T05:34:01;5.50;;;4.50;;
20906;SDS011;10613;50.966;5.814;2022-12-07T05:38:08;6.00;;;6.00;;
20906;SDS011;10613;50.966;5.814;2022-12-07T05:42:15;5.00;;;5.00;;
20906;SDS011;10613;50.966;5.814;2022-12-07T05:46:23;4.50;;;4.50;;
20906;SDS011;10613;50.966;5.814;2022-12-07T05:50:30;6.25;;;4.00;;
20906;SDS011;10613;50.966;5.814;2022-12-07T05:54:37;4.00;;;4.00;;
20906;SDS011;10613;50.966;5.814;2022-12-07T05:58:44;4.00;;;4.00;;
20906;SDS011;10613;50.966;5.814;2022-12-07T06:03:09;4.00;;;4.00;;
20906;SDS011;10613;50.966;5.814;2022-12-07T06:07:23;3.00;;;3.00;;
20906;SDS011;10613;50.966;5.814;2022-12-07T06:11:37;4.25;;;4.25;;
20906;SDS011;10613;50.966;5.814;2022-12-07T06:16:03;10.25;;;10.25;;
20906;SDS011;10613;50.966;5.814;2022-12-07T06:20:10;3.00;;;3.00;;
20906;SDS011;10613;50.966;5.814;2022-12-07T06:24:17;3.00;;;3.00;;
20906;SDS011;10613;50.966;5.814;2022-12-07T06:28:24;3.25;;;3.25;;
20906;SDS011;10613;50.966;5.814;2022-12-07T06:32:32;3.75;;;3.75;;
20906;SDS011;10613;50.966;5.814;2022-12-07T06:36:39;3.00;;;3.00;;
20906;SDS011;10613;50.966;5.814;2022-12-07T06:40:46;6.00;;;6.00;;
20906;SDS011;10613;50.966;5.814;2022-12-07T06:44:53;3.75;;;3.75;;
20906;SDS011;10613;50.966;5.814;2022-12-07T06:49:00;3.25;;;3.25;;
20906;SDS011;10613;50.966;5.814;2022-12-07T06:53:07;5.50;;;4.00;;
20906;SDS011;10613;50.966;5.814;2022-12-07T06:57:15;3.75;;;3.75;;
20906;SDS011;10613;50.966;5.814;2022-12-07T07:01:22;4.00;;;4.00;;
20906;SDS011;10613;50.966;5.814;2022-12-07T07:05:36;3.00;;;3.00;;
20906;SDS011;10613;50.966;5.814;2022-12-07T07:09:50;3.00;;;3.00;;
20906;SDS011;10613;50.966;5.814;2022-12-07T07:13:57;3.75;;;3.75;;
20906;SDS011;10613;50.966;5.814;2022-12-07T07:18:08;3.25;;;3.25;;
20906;SDS011;10613;50.966;5.814;2022-12-07T07:22:15;4.00;;;4.00;;
20906;SDS011;10613;50.966;5.814;2022-12-07T07:26:22;3.00;;;3.00;;
20906;SDS011;10613;50.966;5.814;2022-12-07T07:30:29;3.00;;;3.00;;
20906;SDS011;10613;50.966;5.814;2022-12-07T07:34:36;7.00;;;7.00;;
20906;SDS011;10613;50.966;5.814;2022-12-07T07:38:43;3.00;;;3.00;;
20906;SDS011;10613;50.966;5.814;2022-12-07T07:42:51;6.00;;;6.00;;
20906;SDS011;10613;50.966;5.814;2022-12-07T07:46:57;5.50;;;5.50;;
20906;SDS011;10613;50.966;5.814;2022-12-07T07:51:05;3.00;;;3.00;;
20906;SDS011;10613;50.966;5.814;2022-12-07T07:55:13;3.00;;;3.00;;
20906;SDS011;10613;50.966;5.814;2022-12-07T07:59:20;3.00;;;3.00;;
20906;SDS011;10613;50.966;5.814;2022-12-07T08:03:27;5.25;;;5.25;;
20906;SDS011;10613;50.966;5.814;2022-12-07T08:07:41;4.00;;;4.00;;
20906;SDS011;10613;50.966;5.814;2022-12-07T08:11:48;4.00;;;4.00;;
20906;SDS011;10613;50.966;5.814;2022-12-07T08:15:55;3.75;;;3.75;;
20906;SDS011;10613;50.966;5.814;2022-12-07T08:20:02;6.00;;;6.00;;
20906;SDS011;10613;50.966;5.814;2022-12-07T08:24:09;3.00;;;3.00;;
20906;SDS011;10613;50.966;5.814;2022-12-07T08:28:16;6.00;;;6.00;;
20906;SDS011;10613;50.966;5.814;2022-12-07T08:32:23;8.00;;;8.00;;
20906;SDS011;10613;50.966;5.814;2022-12-07T08:36:30;4.00;;;4.00;;
20906;SDS011;10613;50.966;5.814;2022-12-07T08:40:37;12.50;;;12.50;;
20906;SDS011;10613;50.966;5.814;2022-12-07T08:44:45;11.00;;;11.00;;
20906;SDS011;10613;50.966;5.814;2022-12-07T08:48:59;15.50;;;15.50;;
20906;SDS011;10613;50.966;5.814;2022-12-07T08:53:08;14.75;;;13.00;;
20906;SDS011;10613;50.966;5.814;2022-12-07T08:57:15;10.50;;;10.50;;
20906;SDS011;10613;50.966;5.814;2022-12-07T09:01:22;20.25;;;18.00;;
20906;SDS011;10613;50.966;5.814;2022-12-07T09:05:29;22.25;;;19.00;;
20906;SDS011;10613;50.966;5.814;2022-12-07T09:09:36;10.25;;;9.50;;
20906;SDS011;10613;50.966;5.814;2022-12-07T09:13:43;14.50;;;12.50;;
20906;SDS011;10613;50.966;5.814;2022-12-07T09:17:51;17.75;;;17.00;;
20906;SDS011;10613;50.966;5.814;2022-12-07T09:21:57;14.50;;;13.00;;
20906;SDS011;10613;50.966;5.814;2022-12-07T09:26:04;17.00;;;17.00;;
20906;SDS011;10613;50.966;5.814;2022-12-07T09:30:11;17.75;;;16.75;;
20906;SDS011;10613;50.966;5.814;2022-12-07T09:34:18;15.00;;;14.50;;
20906;SDS011;10613;50.966;5.814;2022-12-07T09:38:26;18.00;;;17.00;;
20906;SDS011;10613;50.966;5.814;2022-12-07T09:42:37;15.75;;;15.00;;
20906;SDS011;10613;50.966;5.814;2022-12-07T09:46:45;15.00;;;15.00;;
20906;SDS011;10613;50.966;5.814;2022-12-07T09:50:52;17.75;;;16.50;;
20906;SDS011;10613;50.966;5.814;2022-12-07T09:55:00;15.75;;;14.00;;
20906;SDS011;10613;50.966;5.814;2022-12-07T09:59:16;18.00;;;15.00;;
20906;SDS011;10613;50.966;5.814;2022-12-07T10:03:26;17.25;;;17.25;;
20906;SDS011;10613;50.966;5.814;2022-12-07T10:07:39;14.50;;;14.50;;
20906;SDS011;10613;50.966;5.814;2022-12-07T10:12:01;12.50;;;11.50;;
20906;SDS011;10613;50.966;5.814;2022-12-07T10:20:30;16.00;;;15.00;;
20906;SDS011;10613;50.966;5.814;2022-12-07T10:24:38;14.00;;;14.00;;
20906;SDS011;10613;50.966;5.814;2022-12-07T10:28:47;15.50;;;13.50;;
20906;SDS011;10613;50.966;5.814;2022-12-07T10:32:54;15.00;;;11.50;;
20906;SDS011;10613;50.966;5.814;2022-12-07T10:41:23;16.00;;;14.00;;
20906;SDS011;10613;50.966;5.814;2022-12-07T10:45:30;16.00;;;14.50;;
20906;SDS011;10613;50.966;5.814;2022-12-07T10:54:12;9.00;;;9.00;;
20906;SDS011;10613;50.966;5.814;2022-12-07T11:06:54;12.00;;;11.75;;
20906;SDS011;10613;50.966;5.814;2022-12-07T11:11:06;7.50;;;7.50;;
20906;SDS011;10613;50.966;5.814;2022-12-07T11:15:24;5.50;;;5.50;;
20906;SDS011;10613;50.966;5.814;2022-12-07T11:24:06;7.75;;;7.75;;
20906;SDS011;10613;50.966;5.814;2022-12-07T11:40:48;8.00;;;8.00;;
20906;SDS011;10613;50.966;5.814;2022-12-07T11:44:56;6.50;;;6.50;;
20906;SDS011;10613;50.966;5.814;2022-12-07T11:53:42;8.25;;;6.00;;
20906;SDS011;10613;50.966;5.814;2022-12-07T11:57:52;10.50;;;9.00;;
20906;SDS011;10613;50.966;5.814;2022-12-07T12:02:13;7.75;;;7.75;;
20906;SDS011;10613;50.966;5.814;2022-12-07T12:06:20;9.00;;;8.00;;
20906;SDS011;10613;50.966;5.814;2022-12-07T12:27:18;8.25;;;8.25;;
20906;SDS011;10613;50.966;5.814;2022-12-07T12:35:36;6.50;;;4.00;;
20906;SDS011;10613;50.966;5.814;2022-12-07T12:39:59;9.25;;;9.25;;
20906;SDS011;10613;50.966;5.814;2022-12-07T12:48:27;7.25;;;7.25;;
20906;SDS011;10613;50.966;5.814;2022-12-07T13:05:30;9.00;;;7.25;;
20906;SDS011;10613;50.966;5.814;2022-12-07T13:09:37;13.50;;;13.50;;
20906;SDS011;10613;50.966;5.814;2022-12-07T13:18:23;8.00;;;8.00;;
20906;SDS011;10613;50.966;5.814;2022-12-07T13:26:37;13.50;;;11.75;;
20906;SDS011;10613;50.966;5.814;2022-12-07T13:30:46;8.00;;;6.50;;
20906;SDS011;10613;50.966;5.814;2022-12-07T13:34:54;3.75;;;3.00;;
20906;SDS011;10613;50.966;5.814;2022-12-07T13:39:11;5.00;;;5.00;;
20906;SDS011;10613;50.966;5.814;2022-12-07T13:43:23;5.00;;;5.00;;
20906;SDS011;10613;50.966;5.814;2022-12-07T13:47:38;4.00;;;4.00;;
20906;SDS011;10613;50.966;5.814;2022-12-07T13:51:48;7.75;;;5.75;;
20906;SDS011;10613;50.966;5.814;2022-12-07T13:55:55;3.50;;;3.50;;
20906;SDS011;10613;50.966;5.814;2022-12-07T14:00:06;5.00;;;5.00;;
20906;SDS011;10613;50.966;5.814;2022-12-07T14:08:43;3.00;;;3.00;;
20906;SDS011;10613;50.966;5.814;2022-12-07T14:12:57;6.00;;;6.00;;
20906;SDS011;10613;50.966;5.814;2022-12-07T14:21:21;4.00;;;4.00;;
20906;SDS011;10613;50.966;5.814;2022-12-07T14:25:33;3.75;;;3.75;;
20906;SDS011;10613;50.966;5.814;2022-12-07T14:29:40;5.50;;;5.50;;
20906;SDS011;10613;50.966;5.814;2022-12-07T14:33:47;5.50;;;5.50;;
20906;SDS011;10613;50.966;5.814;2022-12-07T14:37:54;3.25;;;3.25;;
20906;SDS011;10613;50.966;5.814;2022-12-07T14:42:01;4.00;;;4.00;;
20906;SDS011;10613;50.966;5.814;2022-12-07T14:46:08;4.00;;;4.00;;
20906;SDS011;10613;50.966;5.814;2022-12-07T14:50:17;1.50;;;1.50;;
20906;SDS011;10613;50.966;5.814;2022-12-07T14:54:25;3.00;;;3.00;;
20906;SDS011;10613;50.966;5.814;2022-12-07T14:58:33;5.50;;;5.50;;
20906;SDS011;10613;50.966;5.814;2022-12-07T15:02:40;5.50;;;5.50;;
20906;SDS011;10613;50.966;5.814;2022-12-07T15:06:57;3.75;;;3.75;;
20906;SDS011;10613;50.966;5.814;2022-12-07T15:11:14;2.50;;;2.50;;
20906;SDS011;10613;50.966;5.814;2022-12-07T15:15:22;3.75;;;3.75;;
20906;SDS011;10613;50.966;5.814;2022-12-07T15:19:29;1.00;;;1.00;;
20906;SDS011;10613;50.966;5.814;2022-12-07T15:23:36;3.75;;;3.75;;
20906;SDS011;10613;50.966;5.814;2022-12-07T15:27:43;3.00;;;3.00;;
20906;SDS011;10613;50.966;5.814;2022-12-07T15:31:50;3.00;;;3.00;;
20906;SDS011;10613;50.966;5.814;2022-12-07T15:35:58;3.50;;;3.50;;
20906;SDS011;10613;50.966;5.814;2022-12-07T15:40:06;3.25;;;3.25;;
20906;SDS011;10613;50.966;5.814;2022-12-07T15:44:13;3.75;;;3.75;;
20906;SDS011;10613;50.966;5.814;2022-12-07T15:48:38;4.00;;;4.00;;
20906;SDS011;10613;50.966;5.814;2022-12-07T15:52:45;3.75;;;3.75;;
20906;SDS011;10613;50.966;5.814;2022-12-07T15:56:52;6.00;;;6.00;;
20906;SDS011;10613;50.966;5.814;2022-12-07T16:01:00;4.00;;;4.00;;
20906;SDS011;10613;50.966;5.814;2022-12-07T16:05:07;7.50;;;7.50;;
20906;SDS011;10613;50.966;5.814;2022-12-07T16:09:14;3.00;;;3.00;;
20906;SDS011;10613;50.966;5.814;2022-12-07T16:13:21;3.00;;;3.00;;
20906;SDS011;10613;50.966;5.814;2022-12-07T16:17:28;3.00;;;3.00;;
20906;SDS011;10613;50.966;5.814;2022-12-07T16:21:35;7.00;;;7.00;;
20906;SDS011;10613;50.966;5.814;2022-12-07T16:25:42;3.25;;;3.25;;
20906;SDS011;10613;50.966;5.814;2022-12-07T16:29:49;3.25;;;3.25;;
20906;SDS011;10613;50.966;5.814;2022-12-07T16:33:56;4.00;;;4.00;;
20906;SDS011;10613;50.966;5.814;2022-12-07T16:38:04;3.00;;;3.00;;
20906;SDS011;10613;50.966;5.814;2022-12-07T16:42:11;3.75;;;3.75;;
20906;SDS011;10613;50.966;5.814;2022-12-07T16:46:18;2.00;;;2.00;;
20906;SDS011;10613;50.966;5.814;2022-12-07T16:50:25;3.00;;;3.00;;
20906;SDS011;10613;50.966;5.814;2022-12-07T16:54:32;3.50;;;3.50;;
20906;SDS011;10613;50.966;5.814;2022-12-07T16:58:39;3.75;;;3.75;;
20906;SDS011;10613;50.966;5.814;2022-12-07T17:02:46;6.25;;;6.25;;
20906;SDS011;10613;50.966;5.814;2022-12-07T17:06:53;4.00;;;4.00;;
20906;SDS011;10613;50.966;5.814;2022-12-07T17:11:00;3.25;;;3.25;;
20906;SDS011;10613;50.966;5.814;2022-12-07T17:15:08;3.00;;;3.00;;
20906;SDS011;10613;50.966;5.814;2022-12-07T17:19:24;4.00;;;4.00;;
20906;SDS011;10613;50.966;5.814;2022-12-07T17:23:31;5.50;;;3.25;;
20906;SDS011;10613;50.966;5.814;2022-12-07T17:27:38;3.00;;;3.00;;
20906;SDS011;10613;50.966;5.814;2022-12-07T17:31:45;3.00;;;3.00;;
20906;SDS011;10613;50.966;5.814;2022-12-07T17:35:53;3.25;;;3.25;;
20906;SDS011;10613;50.966;5.814;2022-12-07T17:40:00;8.00;;;6.00;;
20906;SDS011;10613;50.966;5.814;2022-12-07T17:44:08;3.25;;;3.25;;
20906;SDS011;10613;50.966;5.814;2022-12-07T17:48:16;3.00;;;3.00;;
20906;SDS011;10613;50.966;5.814;2022-12-07T17:52:23;6.00;;;6.00;;
20906;SDS011;10613;50.966;5.814;2022-12-07T17:56:48;3.50;;;3.50;;
20906;SDS011;10613;50.966;5.814;2022-12-07T18:00:55;5.50;;;5.50;;
20906;SDS011;10613;50.966;5.814;2022-12-07T18:05:02;3.00;;;3.00;;
20906;SDS011;10613;50.966;5.814;2022-12-07T18:09:09;4.00;;;4.00;;
20906;SDS011;10613;50.966;5.814;2022-12-07T18:13:23;4.00;;;4.00;;
20906;SDS011;10613;50.966;5.814;2022-12-07T18:17:42;3.50;;;3.50;;
20906;SDS011;10613;50.966;5.814;2022-12-07T18:21:49;3.00;;;3.00;;
20906;SDS011;10613;50.966;5.814;2022-12-07T18:25:56;3.75;;;3.00;;
20906;SDS011;10613;50.966;5.814;2022-12-07T18:30:03;6.75;;;6.75;;
20906;SDS011;10613;50.966;5.814;2022-12-07T18:34:11;2.00;;;2.00;;
20906;SDS011;10613;50.966;5.814;2022-12-07T18:38:18;3.00;;;3.00;;
20906;SDS011;10613;50.966;5.814;2022-12-07T18:42:25;4.00;;;4.00;;
20906;SDS011;10613;50.966;5.814;2022-12-07T18:46:32;4.50;;;4.50;;
20906;SDS011;10613;50.966;5.814;2022-12-07T18:50:39;4.00;;;4.00;;
20906;SDS011;10613;50.966;5.814;2022-12-07T18:54:46;4.25;;;4.25;;
20906;SDS011;10613;50.966;5.814;2022-12-07T18:58:54;4.00;;;4.00;;
20906;SDS011;10613;50.966;5.814;2022-12-07T19:03:19;2.00;;;2.00;;
20906;SDS011;10613;50.966;5.814;2022-12-07T19:07:26;4.00;;;4.00;;
20906;SDS011;10613;50.966;5.814;2022-12-07T19:11:40;3.75;;;3.75;;
20906;SDS011;10613;50.966;5.814;2022-12-07T19:15:56;4.50;;;4.50;;
20906;SDS011;10613;50.966;5.814;2022-12-07T19:20:03;2.50;;;2.50;;
20906;SDS011;10613;50.966;5.814;2022-12-07T19:24:11;4.00;;;4.00;;
20906;SDS011;10613;50.966;5.814;2022-12-07T19:28:18;6.00;;;6.00;;
20906;SDS011;10613;50.966;5.814;2022-12-07T19:32:25;2.00;;;2.00;;
20906;SDS011;10613;50.966;5.814;2022-12-07T19:36:33;4.00;;;4.00;;
20906;SDS011;10613;50.966;5.814;2022-12-07T19:40:40;5.00;;;5.00;;
20906;SDS011;10613;50.966;5.814;2022-12-07T19:44:47;4.00;;;4.00;;
20906;SDS011;10613;50.966;5.814;2022-12-07T19:48:54;2.25;;;2.25;;
20906;SDS011;10613;50.966;5.814;2022-12-07T19:53:01;5.00;;;5.00;;
20906;SDS011;10613;50.966;5.814;2022-12-07T19:57:08;6.75;;;6.75;;
20906;SDS011;10613;50.966;5.814;2022-12-07T20:01:20;7.00;;;7.00;;
20906;SDS011;10613;50.966;5.814;2022-12-07T20:05:27;5.25;;;5.25;;
20906;SDS011;10613;50.966;5.814;2022-12-07T20:09:34;7.00;;;7.00;;
20906;SDS011;10613;50.966;5.814;2022-12-07T20:13:48;5.75;;;5.75;;
20906;SDS011;10613;50.966;5.814;2022-12-07T20:17:55;4.00;;;4.00;;
20906;SDS011;10613;50.966;5.814;2022-12-07T20:22:02;3.25;;;3.25;;
20906;SDS011;10613;50.966;5.814;2022-12-07T20:26:10;6.25;;;6.25;;
20906;SDS011;10613;50.966;5.814;2022-12-07T20:30:17;3.00;;;3.00;;
20906;SDS011;10613;50.966;5.814;2022-12-07T20:34:24;6.25;;;6.25;;
20906;SDS011;10613;50.966;5.814;2022-12-07T20:38:32;3.00;;;3.00;;
20906;SDS011;10613;50.966;5.814;2022-12-07T20:42:39;7.00;;;7.00;;
20906;SDS011;10613;50.966;5.814;2022-12-07T20:46:46;3.25;;;3.25;;
20906;SDS011;10613;50.966;5.814;2022-12-07T20:50:53;7.00;;;7.00;;
20906;SDS011;10613;50.966;5.814;2022-12-07T20:55:00;3.00;;;3.00;;
20906;SDS011;10613;50.966;5.814;2022-12-07T20:59:07;6.25;;;6.25;;
20906;SDS011;10613;50.966;5.814;2022-12-07T21:03:16;4.00;;;4.00;;
20906;SDS011;10613;50.966;5.814;2022-12-07T21:07:23;5.00;;;5.00;;
20906;SDS011;10613;50.966;5.814;2022-12-07T21:11:37;5.00;;;5.00;;
20906;SDS011;10613;50.966;5.814;2022-12-07T21:15:44;5.50;;;5.50;;
20906;SDS011;10613;50.966;5.814;2022-12-07T21:19:51;6.75;;;6.75;;
20906;SDS011;10613;50.966;5.814;2022-12-07T21:23:58;6.25;;;6.25;;
20906;SDS011;10613;50.966;5.814;2022-12-07T21:28:05;3.75;;;3.75;;
20906;SDS011;10613;50.966;5.814;2022-12-07T21:32:12;4.00;;;4.00;;
20906;SDS011;10613;50.966;5.814;2022-12-07T21:36:20;7.00;;;6.25;;
20906;SDS011;10613;50.966;5.814;2022-12-07T21:40:27;3.50;;;3.50;;
20906;SDS011;10613;50.966;5.814;2022-12-07T21:44:34;6.00;;;4.00;;
20906;SDS011;10613;50.966;5.814;2022-12-07T21:48:41;3.50;;;3.50;;
20906;SDS011;10613;50.966;5.814;2022-12-07T21:52:48;5.50;;;5.50;;
20906;SDS011;10613;50.966;5.814;2022-12-07T21:56:55;2.75;;;2.75;;
20906;SDS011;10613;50.966;5.814;2022-12-07T22:01:02;8.00;;;8.00;;
20906;SDS011;10613;50.966;5.814;2022-12-07T22:05:09;4.25;;;4.25;;
20906;SDS011;10613;50.966;5.814;2022-12-07T22:09:16;3.00;;;3.00;;
20906;SDS011;10613;50.966;5.814;2022-12-07T22:13:28;3.50;;;3.50;;
20906;SDS011;10613;50.966;5.814;2022-12-07T22:17:58;4.00;;;4.00;;
20906;SDS011;10613;50.966;5.814;2022-12-07T22:22:05;5.00;;;5.00;;
20906;SDS011;10613;50.966;5.814;2022-12-07T22:26:13;4.25;;;4.25;;
20906;SDS011;10613;50.966;5.814;2022-12-07T22:30:20;5.00;;;5.00;;
20906;SDS011;10613;50.966;5.814;2022-12-07T22:34:27;5.50;;;5.50;;
20906;SDS011;10613;50.966;5.814;2022-12-07T22:38:35;5.00;;;4.00;;
20906;SDS011;10613;50.966;5.814;2022-12-07T22:42:42;4.00;;;4.00;;
20906;SDS011;10613;50.966;5.814;2022-12-07T22:46:49;5.00;;;4.00;;
20906;SDS011;10613;50.966;5.814;2022-12-07T22:50:56;4.00;;;4.00;;
20906;SDS011;10613;50.966;5.814;2022-12-07T22:55:03;3.50;;;3.50;;
20906;SDS011;10613;50.966;5.814;2022-12-07T22:59:11;4.00;;;4.00;;
20906;SDS011;10613;50.966;5.814;2022-12-07T23:03:26;4.00;;;4.00;;
20906;SDS011;10613;50.966;5.814;2022-12-07T23:07:47;6.25;;;6.25;;
20906;SDS011;10613;50.966;5.814;2022-12-07T23:11:54;5.50;;;5.50;;
20906;SDS011;10613;50.966;5.814;2022-12-07T23:16:26;3.75;;;3.75;;
20906;SDS011;10613;50.966;5.814;2022-12-07T23:20:33;3.50;;;3.50;;
20906;SDS011;10613;50.966;5.814;2022-12-07T23:24:40;4.50;;;4.50;;
20906;SDS011;10613;50.966;5.814;2022-12-07T23:28:47;6.25;;;6.25;;
20906;SDS011;10613;50.966;5.814;2022-12-07T23:32:54;4.00;;;4.00;;
20906;SDS011;10613;50.966;5.814;2022-12-07T23:37:01;7.00;;;7.00;;
20906;SDS011;10613;50.966;5.814;2022-12-07T23:41:09;5.00;;;5.00;;
20906;SDS011;10613;50.966;5.814;2022-12-07T23:45:16;6.00;;;6.00;;
20906;SDS011;10613;50.966;5.814;2022-12-07T23:49:23;6.50;;;6.50;;
20906;SDS011;10613;50.966;5.814;2022-12-07T23:53:37;5.50;;;5.50;;
20906;SDS011;10613;50.966;5.814;2022-12-07T23:57:44;6.00;;;6.00;;
